AirNav   Air Wisconsin Up To $57,000 Bonus
 
 1439 users online  

WN88 Martin Airport
Ocean Park, Washington, USA

GOING TO OCEAN PARK?


FAA INFORMATION EFFECTIVE 19 MAY 2022

Location

FAA Identifier: WN88
Lat/Long: 46-31-09.3540N 124-01-56.5870W
46-31.155900N 124-01.943117W
46.5192650,-124.0323853
(estimated)
Elevation: 10 ft. / 3.0 m (surveyed)
Variation: 20E (1985)
From city: 2 miles SW of OCEAN PARK, WA
Time zone: UTC -7 (UTC -8 during Standard Time)
Zip code: 98640

Airport Operations

Airport use: Private use. Permission required prior to landing
Activation date: 12/1987
Control tower: no
ARTCC: SEATTLE CENTER
FSS: SEATTLE FLIGHT SERVICE STATION
Attendance: ON CALL ON CALL ON CALL
Wind indicator: yes
Segmented circle: yes

Nearby radio navigation aids

VOR radial/distance  VOR name  Freq  Var
ASTr329/22.4ASTORIA VOR/DME114.0015E
HQMr150/26.1HOQUIAM VORTAC117.7019E

Airport Services

Runway Information

Runway 16/34

Dimensions: 2700 x 150 ft. / 823 x 46 m
Surface: turf, in good condition
RUNWAY 16  RUNWAY 34
Traffic pattern: leftright
Obstructions: none75 ft. trees, 1500 ft. from runway

Airport Ownership and Management from official FAA records

Ownership: Privately-owned
Owner: DAVID R. FAIRHURST
65 EL POTRERO
CARMEL VALLEY, CA 93924
Phone (831) 659-1368
CELL:831-596-6085
Manager: DAVID R. FAIRHURST
65 EL POTRERO
CARMEL VALLEY, CA 93924

Airport Operational Statistics

Aircraft based on the field: 1
Single engine airplanes: 1
    

Additional Remarks

WATCH FOR HVY EQUIP ON RY 16/34.
PPR.
USE AT OWN RISK.
FOR CD CTC SEATTLE ARTCC AT 253-351-3694.

Instrument Procedures

There are no published instrument procedures at WN88.

Some nearby airports with instrument procedures:

KAST - Astoria Regional Airport (23 nm S)
KHQM - Bowerman Airport (27 nm N)
KCLS - Chehalis-Centralia Airport (44 nm E)
KTDO - Ed Carlson Memorial Field - South Lewis County Airport (51 nm E)
KKLS - Southwest Washington Regional Airport (53 nm SE)
 
Loc | Ops | Rwys | IFR | FBO | Links
Com | Nav | Svcs | Stats | Notes
Area around WN88 (Martin Airport)
 
Road maps at: MapQuest Bing Google
 
Aerial photo
No photo
 
Sectional chart

 
Airport distance calculator
Flying to Martin Airport? Find the distance to fly.

From to WN88

Sunrise and sunset
Times for 19-May-2022
 Local
(UTC-7)
 Zulu
(UTC)
Morning civil twilight05:0212:02
Sunrise05:3912:39
Sunset20:4703:47
Evening civil twilight21:2304:23

Current date and time
Zulu (UTC)  19-May-2022 21:05:38
Local (UTC-7)  19-May-2022 14:05:38
 
METAR
KAST 
23nm S 
192055Z AUTO 28014KT 10SM SCT027 BKN035 BKN042 12/06 A3027 RMK AO2 SLP248 60000 T01170056 51004
KHQM 
27nm N 
192053Z AUTO 27013G23KT 10SM FEW029 BKN038 OVC045 12/06 A3025 RMK AO2 SLP246 T01220056 51004
KCLS 
44nm E 
192055Z AUTO VRB04KT 10SM SCT044 SCT050 SCT065 13/04 A3022 RMK AO2
TAF
KAST 
23nm S 
191721Z 1918/2018 26010KT P6SM -SHRA FEW035 BKN045 BKN060 FM192000 32012G20KT P6SM VCSH SCT035 BKN045 FM200300 33007KT P6SM BKN050 FM200600 36006KT P6SM BKN050
KHQM 
27nm N 
191739Z 1918/2018 31010G20KT P6SM SCT030 BKN040 FM200400 28010KT P6SM OVC050 FM201100 VRB03KT P6SM OVC030
NOTAMs
Click for the latest NOTAMs
NOTAMs are issued by the DoD/FAA and will open in a separate window not controlled by AirNav.

 

 
 

Would you like to see your business listed on this page?

 If your business provides an interesting product or service to pilots, flight crews, aircraft, or users of the Martin Airport, you should consider listing it here.  To start the listing process, click on the button below
 
Add a business
 

Other Pages about Martin Airport

Update a link
 
Copyright © AirNav, LLC. All rights reserved. Privacy Policy  Contact